sensor_id;sensor_type;location;lat;lon;timestamp;temperature;humidity
13600;DHT22;6871;51.34740610;4.31323160;2024-01-30T00:00:59;14.70;90.10
13600;DHT22;6871;51.34740610;4.31323160;2024-01-30T00:03:29;14.70;90.10
13600;DHT22;6871;51.34740610;4.31323160;2024-01-30T00:05:59;14.70;90.10
13600;DHT22;6871;51.34740610;4.31323160;2024-01-30T00:08:28;14.70;90.10
13600;DHT22;6871;51.34740610;4.31323160;2024-01-30T00:10:58;14.70;90.10
13600;DHT22;6871;51.34740610;4.31323160;2024-01-30T00:13:27;14.70;90.10
13600;DHT22;6871;51.34740610;4.31323160;2024-01-30T00:15:56;14.70;90.10
13600;DHT22;6871;51.34740610;4.31323160;2024-01-30T00:18:26;14.70;90.10
13600;DHT22;6871;51.34740610;4.31323160;2024-01-30T00:20:56;14.70;90.10
13600;DHT22;6871;51.34740610;4.31323160;2024-01-30T00:23:25;14.70;90.10
13600;DHT22;6871;51.34740610;4.31323160;2024-01-30T00:25:54;14.70;90.10
13600;DHT22;6871;51.34740610;4.31323160;2024-01-30T00:28:24;14.70;90.20
13600;DHT22;6871;51.34740610;4.31323160;2024-01-30T00:30:53;14.70;90.20
13600;DHT22;6871;51.34740610;4.31323160;2024-01-30T00:33:23;14.70;90.20
13600;DHT22;6871;51.34740610;4.31323160;2024-01-30T00:35:53;14.60;90.10
13600;DHT22;6871;51.34740610;4.31323160;2024-01-30T00:38:23;14.60;90.20
13600;DHT22;6871;51.34740610;4.31323160;2024-01-30T00:40:53;14.60;90.20
13600;DHT22;6871;51.34740610;4.31323160;2024-01-30T00:43:23;14.60;90.20
13600;DHT22;6871;51.34740610;4.31323160;2024-01-30T00:45:53;14.60;90.20
13600;DHT22;6871;51.34740610;4.31323160;2024-01-30T00:48:23;14.60;90.20
13600;DHT22;6871;51.34740610;4.31323160;2024-01-30T00:50:53;14.60;90.20
13600;DHT22;6871;51.34740610;4.31323160;2024-01-30T00:53:23;14.60;90.50
13600;DHT22;6871;51.34740610;4.31323160;2024-01-30T00:55:53;14.60;90.20
13600;DHT22;6871;51.34740610;4.31323160;2024-01-30T00:58:24;14.60;90.20
13600;DHT22;6871;51.34740610;4.31323160;2024-01-30T01:00:53;14.60;90.20
13600;DHT22;6871;51.34740610;4.31323160;2024-01-30T01:03:23;14.60;90.20
13600;DHT22;6871;51.34740610;4.31323160;2024-01-30T01:05:53;14.50;90.20
13600;DHT22;6871;51.34740610;4.31323160;2024-01-30T01:08:23;14.50;90.20
13600;DHT22;6871;51.34740610;4.31323160;2024-01-30T01:10:53;14.50;90.20
13600;DHT22;6871;51.34740610;4.31323160;2024-01-30T01:13:23;14.50;90.30
13600;DHT22;6871;51.34740610;4.31323160;2024-01-30T01:15:53;14.50;90.30
13600;DHT22;6871;51.34740610;4.31323160;2024-01-30T01:18:23;14.50;90.30
13600;DHT22;6871;51.34740610;4.31323160;2024-01-30T01:20:53;14.50;90.30
13600;DHT22;6871;51.34740610;4.31323160;2024-01-30T01:23:22;14.50;90.30
13600;DHT22;6871;51.34740610;4.31323160;2024-01-30T01:25:51;14.50;90.30
13600;DHT22;6871;51.34740610;4.31323160;2024-01-30T01:28:22;14.50;90.30
13600;DHT22;6871;51.34740610;4.31323160;2024-01-30T01:30:51;14.50;90.30
13600;DHT22;6871;51.34740610;4.31323160;2024-01-30T01:33:21;14.50;90.30
13600;DHT22;6871;51.34740610;4.31323160;2024-01-30T01:35:50;14.50;90.30
13600;DHT22;6871;51.34740610;4.31323160;2024-01-30T01:38:20;14.50;90.30
13600;DHT22;6871;51.34740610;4.31323160;2024-01-30T01:40:50;14.50;90.40
13600;DHT22;6871;51.34740610;4.31323160;2024-01-30T01:43:20;14.50;90.40
13600;DHT22;6871;51.34740610;4.31323160;2024-01-30T01:45:50;14.50;90.40
13600;DHT22;6871;51.34740610;4.31323160;2024-01-30T01:48:19;14.40;90.40
13600;DHT22;6871;51.34740610;4.31323160;2024-01-30T01:50:50;14.50;90.40
13600;DHT22;6871;51.34740610;4.31323160;2024-01-30T01:53:22;14.50;90.40
13600;DHT22;6871;51.34740610;4.31323160;2024-01-30T01:55:53;14.50;90.40
13600;DHT22;6871;51.34740610;4.31323160;2024-01-30T01:58:23;14.50;90.40
13600;DHT22;6871;51.34740610;4.31323160;2024-01-30T02:00:57;14.50;90.40
13600;DHT22;6871;51.34740610;4.31323160;2024-01-30T02:03:27;14.50;90.40
13600;DHT22;6871;51.34740610;4.31323160;2024-01-30T02:05:57;14.40;90.40
13600;DHT22;6871;51.34740610;4.31323160;2024-01-30T02:08:27;14.40;90.40
13600;DHT22;6871;51.34740610;4.31323160;2024-01-30T02:10:57;14.40;90.40
13600;DHT22;6871;51.34740610;4.31323160;2024-01-30T02:13:27;14.40;90.40
13600;DHT22;6871;51.34740610;4.31323160;2024-01-30T02:15:56;14.40;90.40
13600;DHT22;6871;51.34740610;4.31323160;2024-01-30T02:18:26;14.40;90.50
13600;DHT22;6871;51.34740610;4.31323160;2024-01-30T02:20:57;14.40;90.50
13600;DHT22;6871;51.34740610;4.31323160;2024-01-30T02:23:29;14.40;90.50
13600;DHT22;6871;51.34740610;4.31323160;2024-01-30T02:25:59;14.40;90.50
13600;DHT22;6871;51.34740610;4.31323160;2024-01-30T02:28:29;14.40;90.50
13600;DHT22;6871;51.34740610;4.31323160;2024-01-30T02:30:58;14.40;90.50
13600;DHT22;6871;51.34740610;4.31323160;2024-01-30T02:33:27;14.40;90.50
13600;DHT22;6871;51.34740610;4.31323160;2024-01-30T02:35:56;14.40;90.50
13600;DHT22;6871;51.34740610;4.31323160;2024-01-30T02:38:26;14.40;90.50
13600;DHT22;6871;51.34740610;4.31323160;2024-01-30T02:40:56;14.40;90.50
13600;DHT22;6871;51.34740610;4.31323160;2024-01-30T02:43:25;14.40;90.50
13600;DHT22;6871;51.34740610;4.31323160;2024-01-30T02:45:55;14.40;90.50
13600;DHT22;6871;51.34740610;4.31323160;2024-01-30T02:48:24;14.40;90.50
13600;DHT22;6871;51.34740610;4.31323160;2024-01-30T02:50:53;14.40;90.50
13600;DHT22;6871;51.34740610;4.31323160;2024-01-30T02:53:23;14.40;90.50
13600;DHT22;6871;51.34740610;4.31323160;2024-01-30T02:55:54;14.40;90.60
13600;DHT22;6871;51.34740610;4.31323160;2024-01-30T02:58:24;14.30;90.50
13600;DHT22;6871;51.34740610;4.31323160;2024-01-30T03:00:53;14.40;90.50
13600;DHT22;6871;51.34740610;4.31323160;2024-01-30T03:03:23;14.30;90.50
13600;DHT22;6871;51.34740610;4.31323160;2024-01-30T03:05:53;14.30;90.50
13600;DHT22;6871;51.34740610;4.31323160;2024-01-30T03:08:22;14.30;90.50
13600;DHT22;6871;51.34740610;4.31323160;2024-01-30T03:10:51;14.30;90.50
13600;DHT22;6871;51.34740610;4.31323160;2024-01-30T03:13:21;14.30;90.50
13600;DHT22;6871;51.34740610;4.31323160;2024-01-30T03:15:51;14.30;90.60
13600;DHT22;6871;51.34740610;4.31323160;2024-01-30T03:18:20;14.30;90.60
13600;DHT22;6871;51.34740610;4.31323160;2024-01-30T03:20:50;14.30;90.50
13600;DHT22;6871;51.34740610;4.31323160;2024-01-30T03:23:20;14.30;90.60
13600;DHT22;6871;51.34740610;4.31323160;2024-01-30T03:25:49;14.30;90.60
13600;DHT22;6871;51.34740610;4.31323160;2024-01-30T03:28:19;14.30;90.60
13600;DHT22;6871;51.34740610;4.31323160;2024-01-30T03:30:49;14.30;90.60
13600;DHT22;6871;51.34740610;4.31323160;2024-01-30T03:33:18;14.30;90.60
13600;DHT22;6871;51.34740610;4.31323160;2024-01-30T03:35:47;14.30;90.60
13600;DHT22;6871;51.34740610;4.31323160;2024-01-30T03:38:17;14.30;90.60
13600;DHT22;6871;51.34740610;4.31323160;2024-01-30T03:40:46;14.30;90.60
13600;DHT22;6871;51.34740610;4.31323160;2024-01-30T03:43:15;14.30;90.60
13600;DHT22;6871;51.34740610;4.31323160;2024-01-30T03:45:45;14.30;90.60
13600;DHT22;6871;51.34740610;4.31323160;2024-01-30T03:48:14;14.30;90.60
13600;DHT22;6871;51.34740610;4.31323160;2024-01-30T03:50:43;14.30;90.60
13600;DHT22;6871;51.34740610;4.31323160;2024-01-30T03:53:12;14.30;90.60
13600;DHT22;6871;51.34740610;4.31323160;2024-01-30T03:55:42;14.30;90.60
13600;DHT22;6871;51.34740610;4.31323160;2024-01-30T03:58:11;14.30;90.60
13600;DHT22;6871;51.34740610;4.31323160;2024-01-30T04:00:40;14.30;90.60
13600;DHT22;6871;51.34740610;4.31323160;2024-01-30T04:03:09;14.30;90.50
13600;DHT22;6871;51.34740610;4.31323160;2024-01-30T04:05:39;14.30;90.60
13600;DHT22;6871;51.34740610;4.31323160;2024-01-30T04:08:09;14.30;90.60
13600;DHT22;6871;51.34740610;4.31323160;2024-01-30T04:10:41;14.30;90.60
13600;DHT22;6871;51.34740610;4.31323160;2024-01-30T04:13:10;14.30;90.60
13600;DHT22;6871;51.34740610;4.31323160;2024-01-30T04:15:39;14.30;90.60
13600;DHT22;6871;51.34740610;4.31323160;2024-01-30T04:18:08;14.30;90.60
13600;DHT22;6871;51.34740610;4.31323160;2024-01-30T04:20:38;14.30;90.60
13600;DHT22;6871;51.34740610;4.31323160;2024-01-30T04:23:07;14.30;90.60
13600;DHT22;6871;51.34740610;4.31323160;2024-01-30T04:25:37;14.30;90.60
13600;DHT22;6871;51.34740610;4.31323160;2024-01-30T04:28:06;14.30;90.60
13600;DHT22;6871;51.34740610;4.31323160;2024-01-30T04:30:35;14.30;90.60
13600;DHT22;6871;51.34740610;4.31323160;2024-01-30T04:33:05;14.30;90.60
13600;DHT22;6871;51.34740610;4.31323160;2024-01-30T04:35:35;14.30;90.60
13600;DHT22;6871;51.34740610;4.31323160;2024-01-30T04:38:05;14.30;90.60
13600;DHT22;6871;51.34740610;4.31323160;2024-01-30T04:40:34;14.30;90.60
13600;DHT22;6871;51.34740610;4.31323160;2024-01-30T04:43:09;14.30;90.60
13600;DHT22;6871;51.34740610;4.31323160;2024-01-30T04:45:38;14.30;90.60
13600;DHT22;6871;51.34740610;4.31323160;2024-01-30T04:48:08;14.30;90.60
13600;DHT22;6871;51.34740610;4.31323160;2024-01-30T04:50:37;14.30;90.70
13600;DHT22;6871;51.34740610;4.31323160;2024-01-30T04:53:06;14.30;90.60
13600;DHT22;6871;51.34740610;4.31323160;2024-01-30T04:55:38;14.30;90.60
13600;DHT22;6871;51.34740610;4.31323160;2024-01-30T04:58:07;14.30;90.70
13600;DHT22;6871;51.34740610;4.31323160;2024-01-30T05:00:37;14.30;90.70
13600;DHT22;6871;51.34740610;4.31323160;2024-01-30T05:03:06;14.30;90.60
13600;DHT22;6871;51.34740610;4.31323160;2024-01-30T05:05:35;14.30;90.60
13600;DHT22;6871;51.34740610;4.31323160;2024-01-30T05:08:06;14.30;90.70
13600;DHT22;6871;51.34740610;4.31323160;2024-01-30T05:10:35;14.20;90.60
13600;DHT22;6871;51.34740610;4.31323160;2024-01-30T05:13:04;14.30;90.70
13600;DHT22;6871;51.34740610;4.31323160;2024-01-30T05:15:34;14.30;90.70
13600;DHT22;6871;51.34740610;4.31323160;2024-01-30T05:18:03;14.30;90.60
13600;DHT22;6871;51.34740610;4.31323160;2024-01-30T05:20:33;14.20;90.70
13600;DHT22;6871;51.34740610;4.31323160;2024-01-30T05:23:02;14.30;91.00
13600;DHT22;6871;51.34740610;4.31323160;2024-01-30T05:25:31;14.20;90.70
13600;DHT22;6871;51.34740610;4.31323160;2024-01-30T05:28:01;14.20;90.70
13600;DHT22;6871;51.34740610;4.31323160;2024-01-30T05:30:30;14.20;90.70
13600;DHT22;6871;51.34740610;4.31323160;2024-01-30T05:32:59;14.20;90.70
13600;DHT22;6871;51.34740610;4.31323160;2024-01-30T05:35:29;14.20;90.70
13600;DHT22;6871;51.34740610;4.31323160;2024-01-30T05:38:11;14.20;90.70
13600;DHT22;6871;51.34740610;4.31323160;2024-01-30T05:40:41;14.20;90.70
13600;DHT22;6871;51.34740610;4.31323160;2024-01-30T05:43:10;14.20;90.70
13600;DHT22;6871;51.34740610;4.31323160;2024-01-30T05:45:40;14.20;90.70
13600;DHT22;6871;51.34740610;4.31323160;2024-01-30T05:48:09;14.20;90.70
13600;DHT22;6871;51.34740610;4.31323160;2024-01-30T05:50:38;14.20;90.70
13600;DHT22;6871;51.34740610;4.31323160;2024-01-30T05:53:08;14.20;90.70
13600;DHT22;6871;51.34740610;4.31323160;2024-01-30T05:55:37;14.20;90.70
13600;DHT22;6871;51.34740610;4.31323160;2024-01-30T05:58:06;14.20;90.70
13600;DHT22;6871;51.34740610;4.31323160;2024-01-30T06:00:35;14.20;90.70
13600;DHT22;6871;51.34740610;4.31323160;2024-01-30T06:03:05;14.20;90.70
13600;DHT22;6871;51.34740610;4.31323160;2024-01-30T06:05:34;14.20;90.70
13600;DHT22;6871;51.34740610;4.31323160;2024-01-30T06:08:04;14.20;90.70
13600;DHT22;6871;51.34740610;4.31323160;2024-01-30T06:10:34;14.20;90.40
13600;DHT22;6871;51.34740610;4.31323160;2024-01-30T06:13:04;14.20;90.60
13600;DHT22;6871;51.34740610;4.31323160;2024-01-30T06:15:33;14.30;90.60
13600;DHT22;6871;51.34740610;4.31323160;2024-01-30T06:18:02;14.30;90.60
13600;DHT22;6871;51.34740610;4.31323160;2024-01-30T06:20:32;14.30;90.60
13600;DHT22;6871;51.34740610;4.31323160;2024-01-30T06:23:02;14.40;90.50
13600;DHT22;6871;51.34740610;4.31323160;2024-01-30T06:25:31;14.40;90.40
13600;DHT22;6871;51.34740610;4.31323160;2024-01-30T06:28:00;14.50;90.40
13600;DHT22;6871;51.34740610;4.31323160;2024-01-30T06:30:29;14.50;90.30
13600;DHT22;6871;51.34740610;4.31323160;2024-01-30T06:32:59;14.50;90.20
13600;DHT22;6871;51.34740610;4.31323160;2024-01-30T06:35:28;14.60;90.30
13600;DHT22;6871;51.34740610;4.31323160;2024-01-30T06:37:58;14.50;90.90
13600;DHT22;6871;51.34740610;4.31323160;2024-01-30T06:40:27;14.50;90.50
13600;DHT22;6871;51.34740610;4.31323160;2024-01-30T06:42:56;14.50;90.50
13600;DHT22;6871;51.34740610;4.31323160;2024-01-30T06:45:26;14.60;90.40
13600;DHT22;6871;51.34740610;4.31323160;2024-01-30T06:47:55;14.60;90.30
13600;DHT22;6871;51.34740610;4.31323160;2024-01-30T06:50:24;14.60;90.20
13600;DHT22;6871;51.34740610;4.31323160;2024-01-30T06:52:53;14.70;90.20
13600;DHT22;6871;51.34740610;4.31323160;2024-01-30T06:55:23;14.70;90.20
13600;DHT22;6871;51.34740610;4.31323160;2024-01-30T06:58:11;14.80;90.10
13600;DHT22;6871;51.34740610;4.31323160;2024-01-30T07:00:41;14.80;90.10
13600;DHT22;6871;51.34740610;4.31323160;2024-01-30T07:03:10;14.80;90.00
13600;DHT22;6871;51.34740610;4.31323160;2024-01-30T07:05:39;14.80;90.00
13600;DHT22;6871;51.34740610;4.31323160;2024-01-30T07:08:09;14.80;89.90
13600;DHT22;6871;51.34740610;4.31323160;2024-01-30T07:10:38;14.80;89.90
13600;DHT22;6871;51.34740610;4.31323160;2024-01-30T07:13:07;14.80;89.90
13600;DHT22;6871;51.34740610;4.31323160;2024-01-30T07:15:38;14.90;89.80
13600;DHT22;6871;51.34740610;4.31323160;2024-01-30T07:18:07;14.90;89.80
13600;DHT22;6871;51.34740610;4.31323160;2024-01-30T07:20:37;14.90;89.70
13600;DHT22;6871;51.34740610;4.31323160;2024-01-30T07:23:08;14.90;89.70
13600;DHT22;6871;51.34740610;4.31323160;2024-01-30T07:25:39;15.00;89.70
13600;DHT22;6871;51.34740610;4.31323160;2024-01-30T07:28:09;14.90;89.50
13600;DHT22;6871;51.34740610;4.31323160;2024-01-30T07:30:38;15.00;89.80
13600;DHT22;6871;51.34740610;4.31323160;2024-01-30T07:33:07;14.90;89.70
13600;DHT22;6871;51.34740610;4.31323160;2024-01-30T07:35:37;15.00;89.70
13600;DHT22;6871;51.34740610;4.31323160;2024-01-30T07:38:06;15.00;89.60
13600;DHT22;6871;51.34740610;4.31323160;2024-01-30T07:40:36;15.00;89.60
13600;DHT22;6871;51.34740610;4.31323160;2024-01-30T07:43:05;15.00;89.50
13600;DHT22;6871;51.34740610;4.31323160;2024-01-30T07:45:35;15.00;89.50
13600;DHT22;6871;51.34740610;4.31323160;2024-01-30T07:48:06;15.00;89.50
13600;DHT22;6871;51.34740610;4.31323160;2024-01-30T07:50:36;15.10;89.40
13600;DHT22;6871;51.34740610;4.31323160;2024-01-30T07:53:05;15.10;89.50
13600;DHT22;6871;51.34740610;4.31323160;2024-01-30T07:55:35;15.10;89.40
13600;DHT22;6871;51.34740610;4.31323160;2024-01-30T07:58:04;15.10;89.40
13600;DHT22;6871;51.34740610;4.31323160;2024-01-30T08:00:34;15.10;89.40
13600;DHT22;6871;51.34740610;4.31323160;2024-01-30T08:03:03;15.10;89.40
13600;DHT22;6871;51.34740610;4.31323160;2024-01-30T08:05:33;15.10;89.60
13600;DHT22;6871;51.34740610;4.31323160;2024-01-30T08:08:02;15.10;89.70
13600;DHT22;6871;51.34740610;4.31323160;2024-01-30T08:10:32;15.10;89.70
13600;DHT22;6871;51.34740610;4.31323160;2024-01-30T08:13:01;15.10;89.60
13600;DHT22;6871;51.34740610;4.31323160;2024-01-30T08:15:31;15.10;89.50
13600;DHT22;6871;51.34740610;4.31323160;2024-01-30T08:18:00;15.10;89.50
13600;DHT22;6871;51.34740610;4.31323160;2024-01-30T08:20:30;15.10;89.80
13600;DHT22;6871;51.34740610;4.31323160;2024-01-30T08:23:00;15.10;89.90
13600;DHT22;6871;51.34740610;4.31323160;2024-01-30T08:25:29;15.10;90.00
13600;DHT22;6871;51.34740610;4.31323160;2024-01-30T08:27:59;15.10;90.00
13600;DHT22;6871;51.34740610;4.31323160;2024-01-30T08:30:28;15.10;89.80
13600;DHT22;6871;51.34740610;4.31323160;2024-01-30T08:32:58;15.20;89.70
13600;DHT22;6871;51.34740610;4.31323160;2024-01-30T08:35:27;15.20;89.60
13600;DHT22;6871;51.34740610;4.31323160;2024-01-30T08:37:58;15.20;89.60
13600;DHT22;6871;51.34740610;4.31323160;2024-01-30T08:40:27;15.20;89.50
13600;DHT22;6871;51.34740610;4.31323160;2024-01-30T08:42:57;15.20;89.60
13600;DHT22;6871;51.34740610;4.31323160;2024-01-30T08:45:26;15.20;89.60
13600;DHT22;6871;51.34740610;4.31323160;2024-01-30T08:47:56;15.20;90.00
13600;DHT22;6871;51.34740610;4.31323160;2024-01-30T08:50:25;15.20;90.00
13600;DHT22;6871;51.34740610;4.31323160;2024-01-30T08:52:55;15.20;90.10
13600;DHT22;6871;51.34740610;4.31323160;2024-01-30T08:55:24;15.20;90.10
13600;DHT22;6871;51.34740610;4.31323160;2024-01-30T08:57:54;15.30;90.10
13600;DHT22;6871;51.34740610;4.31323160;2024-01-30T09:00:24;15.20;90.00
13600;DHT22;6871;51.34740610;4.31323160;2024-01-30T09:02:53;15.30;90.00
13600;DHT22;6871;51.34740610;4.31323160;2024-01-30T09:05:22;15.30;89.90
13600;DHT22;6871;51.34740610;4.31323160;2024-01-30T09:07:51;15.30;89.80
13600;DHT22;6871;51.34740610;4.31323160;2024-01-30T09:10:21;15.30;89.80
13600;DHT22;6871;51.34740610;4.31323160;2024-01-30T09:12:50;15.30;89.90
13600;DHT22;6871;51.34740610;4.31323160;2024-01-30T09:15:19;15.30;89.90
13600;DHT22;6871;51.34740610;4.31323160;2024-01-30T09:17:48;15.30;89.80
13600;DHT22;6871;51.34740610;4.31323160;2024-01-30T09:20:18;15.30;89.90
13600;DHT22;6871;51.34740610;4.31323160;2024-01-30T09:22:48;15.30;89.90
13600;DHT22;6871;51.34740610;4.31323160;2024-01-30T09:25:18;15.30;90.00
13600;DHT22;6871;51.34740610;4.31323160;2024-01-30T09:27:47;15.30;90.10
13600;DHT22;6871;51.34740610;4.31323160;2024-01-30T09:30:17;15.30;90.40
13600;DHT22;6871;51.34740610;4.31323160;2024-01-30T09:32:49;15.30;90.90
13600;DHT22;6871;51.34740610;4.31323160;2024-01-30T09:35:18;15.50;91.20
13600;DHT22;6871;51.34740610;4.31323160;2024-01-30T09:37:47;15.70;90.90
13600;DHT22;6871;51.34740610;4.31323160;2024-01-30T09:40:17;15.70;90.50
13600;DHT22;6871;51.34740610;4.31323160;2024-01-30T09:42:49;15.80;90.30
13600;DHT22;6871;51.34740610;4.31323160;2024-01-30T09:45:19;15.80;90.10
13600;DHT22;6871;51.34740610;4.31323160;2024-01-30T09:47:49;15.80;90.00
13600;DHT22;6871;51.34740610;4.31323160;2024-01-30T09:50:18;15.80;90.00
13600;DHT22;6871;51.34740610;4.31323160;2024-01-30T09:52:48;15.70;90.00
13600;DHT22;6871;51.34740610;4.31323160;2024-01-30T09:55:18;15.70;89.90
13600;DHT22;6871;51.34740610;4.31323160;2024-01-30T09:57:48;15.70;90.00
13600;DHT22;6871;51.34740610;4.31323160;2024-01-30T10:00:17;15.70;90.00
13600;DHT22;6871;51.34740610;4.31323160;2024-01-30T10:02:47;15.60;90.00
13600;DHT22;6871;51.34740610;4.31323160;2024-01-30T10:05:19;15.50;90.10
13600;DHT22;6871;51.34740610;4.31323160;2024-01-30T10:07:55;15.50;90.20
13600;DHT22;6871;51.34740610;4.31323160;2024-01-30T10:10:26;15.50;90.10
13600;DHT22;6871;51.34740610;4.31323160;2024-01-30T10:12:55;15.50;90.10
13600;DHT22;6871;51.34740610;4.31323160;2024-01-30T10:15:25;15.50;90.10
13600;DHT22;6871;51.34740610;4.31323160;2024-01-30T10:17:55;15.50;90.10
13600;DHT22;6871;51.34740610;4.31323160;2024-01-30T10:20:26;15.50;90.10
13600;DHT22;6871;51.34740610;4.31323160;2024-01-30T10:22:55;15.40;90.00
13600;DHT22;6871;51.34740610;4.31323160;2024-01-30T10:25:26;15.40;90.10
13600;DHT22;6871;51.34740610;4.31323160;2024-01-30T10:27:55;15.40;90.10
13600;DHT22;6871;51.34740610;4.31323160;2024-01-30T10:30:25;15.40;90.10
13600;DHT22;6871;51.34740610;4.31323160;2024-01-30T10:32:54;15.40;90.10
13600;DHT22;6871;51.34740610;4.31323160;2024-01-30T10:35:23;15.40;90.20
13600;DHT22;6871;51.34740610;4.31323160;2024-01-30T10:37:53;15.40;90.10
13600;DHT22;6871;51.34740610;4.31323160;2024-01-30T10:40:26;15.40;89.90
13600;DHT22;6871;51.34740610;4.31323160;2024-01-30T10:42:56;15.40;90.00
13600;DHT22;6871;51.34740610;4.31323160;2024-01-30T10:45:29;15.40;90.00
13600;DHT22;6871;51.34740610;4.31323160;2024-01-30T10:48:00;15.30;90.30
13600;DHT22;6871;51.34740610;4.31323160;2024-01-30T10:50:31;15.30;89.30
13600;DHT22;6871;51.34740610;4.31323160;2024-01-30T10:53:03;15.20;89.80
13600;DHT22;6871;51.34740610;4.31323160;2024-01-30T10:55:33;15.20;90.20
13600;DHT22;6871;51.34740610;4.31323160;2024-01-30T10:58:03;15.20;90.20
13600;DHT22;6871;51.34740610;4.31323160;2024-01-30T11:00:34;15.20;90.30
13600;DHT22;6871;51.34740610;4.31323160;2024-01-30T11:03:04;15.30;90.20
13600;DHT22;6871;51.34740610;4.31323160;2024-01-30T11:05:34;15.20;90.20
13600;DHT22;6871;51.34740610;4.31323160;2024-01-30T11:08:12;15.30;90.20
13600;DHT22;6871;51.34740610;4.31323160;2024-01-30T11:10:48;15.30;90.10
13600;DHT22;6871;51.34740610;4.31323160;2024-01-30T11:13:18;15.30;90.00
13600;DHT22;6871;51.34740610;4.31323160;2024-01-30T11:15:49;15.30;89.90
13600;DHT22;6871;51.34740610;4.31323160;2024-01-30T11:18:29;15.30;89.90
13600;DHT22;6871;51.34740610;4.31323160;2024-01-30T11:20:59;15.30;89.80
13600;DHT22;6871;51.34740610;4.31323160;2024-01-30T11:23:30;15.30;89.40
13600;DHT22;6871;51.34740610;4.31323160;2024-01-30T11:26:00;15.30;89.20
13600;DHT22;6871;51.34740610;4.31323160;2024-01-30T11:28:33;15.30;89.40
13600;DHT22;6871;51.34740610;4.31323160;2024-01-30T11:31:06;15.30;89.20
13600;DHT22;6871;51.34740610;4.31323160;2024-01-30T11:33:36;15.30;89.40
13600;DHT22;6871;51.34740610;4.31323160;2024-01-30T11:36:06;15.30;89.40
13600;DHT22;6871;51.34740610;4.31323160;2024-01-30T11:38:38;15.30;89.60
13600;DHT22;6871;51.34740610;4.31323160;2024-01-30T11:41:07;15.30;89.40
13600;DHT22;6871;51.34740610;4.31323160;2024-01-30T11:43:37;15.30;89.20
13600;DHT22;6871;51.34740610;4.31323160;2024-01-30T11:46:08;15.30;89.50
13600;DHT22;6871;51.34740610;4.31323160;2024-01-30T11:48:38;15.20;90.00
13600;DHT22;6871;51.34740610;4.31323160;2024-01-30T11:51:07;15.20;89.80
13600;DHT22;6871;51.34740610;4.31323160;2024-01-30T11:53:37;15.20;89.20
13600;DHT22;6871;51.34740610;4.31323160;2024-01-30T11:56:08;15.20;89.10
13600;DHT22;6871;51.34740610;4.31323160;2024-01-30T11:58:37;15.20;89.40
13600;DHT22;6871;51.34740610;4.31323160;2024-01-30T12:01:06;15.20;89.80
13600;DHT22;6871;51.34740610;4.31323160;2024-01-30T12:03:35;15.10;89.40
13600;DHT22;6871;51.34740610;4.31323160;2024-01-30T12:06:05;15.10;89.60
13600;DHT22;6871;51.34740610;4.31323160;2024-01-30T12:08:35;15.20;89.70
13600;DHT22;6871;51.34740610;4.31323160;2024-01-30T12:11:06;15.20;89.60
13600;DHT22;6871;51.34740610;4.31323160;2024-01-30T12:13:35;15.20;89.60
13600;DHT22;6871;51.34740610;4.31323160;2024-01-30T12:16:06;15.10;89.40
13600;DHT22;6871;51.34740610;4.31323160;2024-01-30T12:18:36;15.10;90.20
13600;DHT22;6871;51.34740610;4.31323160;2024-01-30T12:21:06;15.10;90.10
13600;DHT22;6871;51.34740610;4.31323160;2024-01-30T12:23:36;15.10;90.00
13600;DHT22;6871;51.34740610;4.31323160;2024-01-30T12:26:05;15.10;90.10
13600;DHT22;6871;51.34740610;4.31323160;2024-01-30T12:28:35;15.10;90.00
13600;DHT22;6871;51.34740610;4.31323160;2024-01-30T12:31:04;15.10;90.00
13600;DHT22;6871;51.34740610;4.31323160;2024-01-30T12:33:35;15.10;89.80
13600;DHT22;6871;51.34740610;4.31323160;2024-01-30T12:36:05;15.10;89.80
13600;DHT22;6871;51.34740610;4.31323160;2024-01-30T12:38:35;15.10;90.00
13600;DHT22;6871;51.34740610;4.31323160;2024-01-30T12:41:04;15.10;90.30
13600;DHT22;6871;51.34740610;4.31323160;2024-01-30T12:43:35;15.10;90.30
13600;DHT22;6871;51.34740610;4.31323160;2024-01-30T12:46:05;15.10;90.10
13600;DHT22;6871;51.34740610;4.31323160;2024-01-30T12:48:34;15.10;90.00
13600;DHT22;6871;51.34740610;4.31323160;2024-01-30T12:51:03;15.10;89.80
13600;DHT22;6871;51.34740610;4.31323160;2024-01-30T12:53:33;15.10;89.80
13600;DHT22;6871;51.34740610;4.31323160;2024-01-30T12:56:02;15.10;89.80
13600;DHT22;6871;51.34740610;4.31323160;2024-01-30T12:58:32;15.10;89.90
13600;DHT22;6871;51.34740610;4.31323160;2024-01-30T13:01:01;15.00;90.00
13600;DHT22;6871;51.34740610;4.31323160;2024-01-30T13:03:31;15.00;89.90
13600;DHT22;6871;51.34740610;4.31323160;2024-01-30T13:06:00;15.00;90.10
13600;DHT22;6871;51.34740610;4.31323160;2024-01-30T13:08:29;15.00;90.20
13600;DHT22;6871;51.34740610;4.31323160;2024-01-30T13:10:58;15.00;90.20
13600;DHT22;6871;51.34740610;4.31323160;2024-01-30T13:13:28;15.00;90.20
13600;DHT22;6871;51.34740610;4.31323160;2024-01-30T13:15:57;15.00;90.10
13600;DHT22;6871;51.34740610;4.31323160;2024-01-30T13:18:26;15.00;90.10
13600;DHT22;6871;51.34740610;4.31323160;2024-01-30T13:20:55;15.00;90.10
13600;DHT22;6871;51.34740610;4.31323160;2024-01-30T13:23:25;15.00;89.90
13600;DHT22;6871;51.34740610;4.31323160;2024-01-30T13:25:54;15.00;89.80
13600;DHT22;6871;51.34740610;4.31323160;2024-01-30T13:28:26;15.00;89.80
13600;DHT22;6871;51.34740610;4.31323160;2024-01-30T13:30:55;15.00;89.80
13600;DHT22;6871;51.34740610;4.31323160;2024-01-30T13:33:25;15.00;89.80
13600;DHT22;6871;51.34740610;4.31323160;2024-01-30T13:35:55;14.90;89.70
13600;DHT22;6871;51.34740610;4.31323160;2024-01-30T13:38:27;14.90;89.60
13600;DHT22;6871;51.34740610;4.31323160;2024-01-30T13:40:56;14.90;89.60
13600;DHT22;6871;51.34740610;4.31323160;2024-01-30T13:43:26;14.90;89.70
13600;DHT22;6871;51.34740610;4.31323160;2024-01-30T13:45:56;14.80;90.10
13600;DHT22;6871;51.34740610;4.31323160;2024-01-30T13:48:26;14.80;90.10